Fort Story, Virginia
Current Conditions -  °F | °C
As of 8:56 AM on Wednesday 26 Nov 2014 (Local Time) from KNTU Reporting Station
Moderate Rain Moderate Rain  
Wind Chill: 11°   Ceiling: 600
Heat Index: 11°   Visibility: 2mi
Dew Point:   Wind: 16mph
Humidity: 89%   Direction: 360°N
Pressure: 29.86"   Gusts: 24mph
Location:  36.922°N, 76.0108°W
Report Text: KNTU 261356Z 36014G21KT 2SM RA BR BKN006 OVC013 11/09 A2986 RMK AO2 PK WND 03038/1325 SLP115 P0009 T01060089
Loading
Personal Weather Stations






























Interactive Weather Map New forecast layout! Learn more

10-Day Weather Forecast

Advertisements
Track Severe Weather on mobile